Terminal Aerodrome Forecast
Issued by NWS Huntsville, AL

Home | Current Version | Previous Version | Text Only | Print | Product List | Glossary On
Versions: 1 2 3 4 5 6 7 8 9 10 11 12 13 14 15 16 17 18 19 20 21 22 23 24 25 26 27 28 29 30 31
000
FTUS44 KHUN 011902 AAA
TAFMSL
TAF AMD
KMSL 011902Z 0119/0218 18015G23KT 5SM -SHRA BR OVC010
     FM020000 25011G20KT 5SM RA BR BKN007 OVC010
     FM020300 30011G18KT 6SM -SHRA OVC015
     FM020900 31012KT P6SM -DZ BKN030
     FM021500 32012KT P6SM BKN030=

USA.gov is the U.S. government's official web portal to all federal, state and local government web resources and services.